Time;durP1;ratioP1;P1;durP2;ratioP2;P2;SDS_P1;SDS_P2;PMS_P1;PMS_P2;Temp;Humidity;BMP_temperature;BMP_pressure;BME280_temperature;BME280_humidity;BME280_pressure;Samples;Min_cycle;Max_cycle;Signal;HPM_P1;HPM_P2
2021/03/09 00:00:07;;;;;;;7.80;5.10;;;3.90;99.90;;;;;;4896034;29;20044;-93
2021/03/09 00:02:33;;;;;;;13.27;6.32;;;3.90;99.90;;;;;;4897346;29;20036;-94
2021/03/09 00:04:59;;;;;;;15.85;6.25;;;3.80;99.90;;;;;;4898908;29;20037;-93
2021/03/09 00:07:24;;;;;;;13.35;5.15;;;3.80;99.90;;;;;;4898350;29;20033;-93
2021/03/09 00:09:50;;;;;;;9.98;5.10;;;3.80;99.90;;;;;;4897429;29;20036;-92
2021/03/09 00:12:16;;;;;;;11.80;5.45;;;3.80;99.90;;;;;;4897706;29;20028;-92
2021/03/09 00:14:42;;;;;;;12.85;5.90;;;3.70;99.90;;;;;;4898078;29;20045;-93
2021/03/09 00:17:07;;;;;;;9.40;4.72;;;3.70;99.90;;;;;;4900659;29;20096;-91
2021/03/09 00:19:33;;;;;;;14.00;6.07;;;3.70;99.90;;;;;;4901547;29;20044;-91
2021/03/09 00:21:59;;;;;;;13.30;6.07;;;3.70;99.90;;;;;;4897922;29;20108;-93
2021/03/09 00:24:24;;;;;;;17.27;5.85;;;3.70;99.90;;;;;;4896975;29;20029;-94
2021/03/09 00:26:50;;;;;;;8.32;4.80;;;3.60;99.90;;;;;;4899728;29;20033;-95
2021/03/09 00:29:16;;;;;;;10.88;5.38;;;3.60;99.90;;;;;;4891377;29;20041;-95
2021/03/09 00:31:41;;;;;;;11.38;4.90;;;3.60;99.90;;;;;;4888777;29;20029;-94
2021/03/09 00:34:07;;;;;;;11.35;4.93;;;3.50;99.90;;;;;;4893691;29;20048;-93
2021/03/09 00:36:32;;;;;;;9.60;4.97;;;3.50;99.90;;;;;;4895268;29;20037;-93
2021/03/09 00:38:58;;;;;;;13.93;4.90;;;3.50;99.90;;;;;;4894237;29;20065;-94
2021/03/09 00:41:24;;;;;;;8.38;4.78;;;3.50;99.90;;;;;;4895518;29;20041;-92
2021/03/09 00:43:49;;;;;;;8.13;4.97;;;3.50;99.90;;;;;;4921757;29;20029;-91
2021/03/09 00:46:15;;;;;;;9.75;5.35;;;3.50;99.90;;;;;;4904073;29;20044;-90
2021/03/09 00:48:41;;;;;;;9.75;5.40;;;3.50;99.90;;;;;;4900182;29;20043;-95
2021/03/09 00:51:07;;;;;;;9.52;4.95;;;3.50;99.90;;;;;;4901077;29;20057;-93
2021/03/09 00:53:33;;;;;;;11.10;5.40;;;3.40;99.90;;;;;;4916706;29;20028;-92
2021/03/09 00:55:59;;;;;;;10.23;5.25;;;3.40;99.90;;;;;;4898944;29;20045;-93
2021/03/09 00:58:25;;;;;;;12.10;5.45;;;3.30;99.90;;;;;;4899559;29;20024;-93
2021/03/09 01:00:50;;;;;;;11.23;5.85;;;3.30;99.90;;;;;;4895778;29;20031;-94
2021/03/09 01:03:16;;;;;;;7.57;4.65;;;3.30;99.90;;;;;;4912981;29;20032;-94
2021/03/09 01:05:42;;;;;;;9.88;5.07;;;3.20;99.90;;;;;;4892513;29;20605;-94
2021/03/09 01:08:08;;;;;;;8.77;5.60;;;3.20;99.90;;;;;;4893798;29;20029;-93
2021/03/09 01:10:34;;;;;;;13.43;6.63;;;3.10;99.90;;;;;;4895155;29;20037;-94
2021/03/09 01:13:00;;;;;;;8.38;4.55;;;3.10;99.90;;;;;;4901873;29;20029;-92
2021/03/09 01:15:25;;;;;;;15.80;7.28;;;3.00;99.90;;;;;;4902220;29;20040;-93
2021/03/09 01:17:51;;;;;;;11.00;5.63;;;3.10;99.90;;;;;;4901663;29;20036;-92
2021/03/09 01:20:17;;;;;;;11.82;5.25;;;3.00;99.90;;;;;;4900892;29;20048;-94
2021/03/09 01:22:43;;;;;;;11.20;5.38;;;3.00;99.90;;;;;;4899918;29;20662;-93
2021/03/09 01:25:09;;;;;;;12.52;6.38;;;3.00;99.90;;;;;;4898837;29;20033;-94
2021/03/09 01:27:35;;;;;;;15.70;6.47;;;3.00;99.90;;;;;;4897371;29;20057;-94
2021/03/09 01:30:00;;;;;;;13.00;6.32;;;2.90;99.90;;;;;;4901055;29;20028;-93
2021/03/09 01:32:26;;;;;;;14.38;6.53;;;2.80;99.90;;;;;;4895342;29;20028;-93
2021/03/09 01:34:52;;;;;;;10.68;6.03;;;2.80;99.90;;;;;;4918203;29;20020;-93
2021/03/09 01:37:18;;;;;;;10.90;6.68;;;2.80;99.90;;;;;;4901178;29;20052;-94
2021/03/09 01:39:44;;;;;;;13.63;5.85;;;2.70;99.90;;;;;;4896986;29;20037;-95
2021/03/09 01:42:09;;;;;;;13.02;4.93;;;2.70;99.90;;;;;;4884709;29;20049;-94
2021/03/09 01:44:35;;;;;;;17.23;6.70;;;2.70;99.90;;;;;;4902317;29;20029;-94
2021/03/09 01:47:02;;;;;;;13.80;6.30;;;2.70;99.90;;;;;;4905317;29;20028;-93
2021/03/09 01:49:35;;;;;;;13.70;7.10;;;2.70;99.90;;;;;;4888464;29;20024;-95
2021/03/09 01:52:04;;;;;;;16.15;6.85;;;2.70;99.90;;;;;;4903100;29;20041;-94
2021/03/09 01:54:30;;;;;;;14.68;7.55;;;2.70;99.90;;;;;;4887271;29;20080;-93
2021/03/09 01:56:56;;;;;;;10.73;5.32;;;2.70;99.90;;;;;;4887484;29;20033;-95
2021/03/09 01:59:22;;;;;;;14.45;6.82;;;2.70;99.90;;;;;;4904232;29;20048;-94
2021/03/09 02:01:48;;;;;;;16.27;7.88;;;2.80;99.90;;;;;;4887003;29;20167;-95
2021/03/09 02:04:13;;;;;;;13.00;7.07;;;2.80;99.90;;;;;;4887949;29;20029;-95
2021/03/09 02:06:39;;;;;;;16.65;7.28;;;2.80;99.90;;;;;;4887297;29;20029;-94
2021/03/09 02:09:06;;;;;;;14.25;7.18;;;2.80;99.90;;;;;;4885570;29;20483;-92
2021/03/09 02:12:16;;;;;;;10.45;6.32;;;2.80;99.90;;;;;;4874420;29;20039;-93
2021/03/09 02:15:13;;;;;;;17.10;7.28;;;2.70;99.90;;;;;;4869987;29;20041;-93
2021/03/09 02:17:54;;;;;;;13.27;8.32;;;2.70;99.90;;;;;;4871155;29;20033;-90
2021/03/09 02:20:40;;;;;;;;;;;2.60;99.90;;;;;;4874199;29;20077;-89
2021/03/09 02:23:20;;;;;;;13.20;7.43;;;2.70;99.90;;;;;;4876171;29;19931;-93
2021/03/09 02:26:23;;;;;;;14.07;7.85;;;2.60;99.90;;;;;;4876294;29;20037;-91
2021/03/09 02:29:24;;;;;;;13.45;6.75;;;2.60;99.90;;;;;;4897066;29;20081;-92
2021/03/09 02:31:53;;;;;;;11.05;6.40;;;2.60;99.90;;;;;;4899491;29;20029;-92
2021/03/09 02:34:28;;;;;;;13.73;7.50;;;2.70;99.90;;;;;;4877621;29;20045;-92
2021/03/09 02:36:56;;;;;;;17.92;8.15;;;2.60;99.90;;;;;;4875472;29;20483;-95
2021/03/09 02:39:24;;;;;;;18.65;8.30;;;2.60;99.90;;;;;;4882382;29;20029;-91
2021/03/09 02:41:50;;;;;;;19.50;8.00;;;2.60;99.90;;;;;;4874430;29;20048;-94
2021/03/09 02:44:22;;;;;;;14.90;7.95;;;2.50;99.90;;;;;;4869313;29;20060;-93
2021/03/09 02:46:49;;;;;;;16.85;8.00;;;2.60;99.90;;;;;;4865621;29;20481;-94
2021/03/09 02:49:16;;;;;;;13.13;7.40;;;2.50;99.90;;;;;;4871479;29;20029;-93
2021/03/09 02:51:44;;;;;;;17.40;7.75;;;2.50;99.90;;;;;;4874184;29;20025;-94
2021/03/09 02:54:12;;;;;;;15.60;8.40;;;2.50;99.90;;;;;;4880869;29;20033;-94
2021/03/09 02:56:43;;;;;;;18.50;8.35;;;2.50;99.90;;;;;;4881217;29;20044;-93
2021/03/09 02:59:13;;;;;;;16.65;9.20;;;2.50;99.90;;;;;;4871985;29;20086;-94
2021/03/09 03:01:46;;;;;;;15.52;7.22;;;2.40;99.90;;;;;;4867166;29;20046;-93
2021/03/09 03:04:15;;;;;;;19.52;7.00;;;2.40;99.90;;;;;;4865805;29;20165;-94
2021/03/09 03:06:43;;;;;;;13.15;7.30;;;2.40;99.90;;;;;;4869905;29;20029;-93
2021/03/09 03:09:11;;;;;;;13.55;6.93;;;2.30;99.90;;;;;;4869965;29;20037;-93
2021/03/09 03:11:39;;;;;;;13.95;7.10;;;2.30;99.90;;;;;;4864633;29;20062;-95
2021/03/09 03:14:06;;;;;;;11.43;6.88;;;2.40;99.90;;;;;;4865287;29;20113;-93
2021/03/09 03:16:33;;;;;;;13.70;7.90;;;2.40;99.90;;;;;;4865200;29;20045;-92
2021/03/09 03:19:05;;;;;;;20.70;8.30;;;2.40;99.90;;;;;;4862121;29;20042;-93
2021/03/09 03:21:33;;;;;;;21.95;8.20;;;2.40;99.90;;;;;;4863248;29;20095;-92
2021/03/09 03:24:04;;;;;;;14.68;6.78;;;2.30;99.90;;;;;;4863297;29;20041;-94
2021/03/09 03:26:31;;;;;;;13.40;6.20;;;2.30;99.90;;;;;;4863843;29;20041;-94
2021/03/09 03:28:58;;;;;;;12.70;7.72;;;2.40;99.90;;;;;;4863902;29;20091;-94
2021/03/09 03:31:24;;;;;;;19.60;9.18;;;2.30;99.90;;;;;;4862223;29;20569;-91
2021/03/09 03:33:50;;;;;;;19.48;9.40;;;2.40;99.90;;;;;;4861008;29;20091;-92
2021/03/09 03:36:17;;;;;;;20.33;8.75;;;2.30;99.90;;;;;;4861801;29;20045;-93
2021/03/09 03:38:43;;;;;;;19.85;8.60;;;2.20;99.90;;;;;;4862908;29;20025;-91
2021/03/09 03:41:10;;;;;;;12.55;8.02;;;2.20;99.90;;;;;;4863754;29;20052;-94
2021/03/09 03:43:37;;;;;;;17.45;8.50;;;2.10;99.90;;;;;;4862460;29;20053;-94
2021/03/09 03:46:04;;;;;;;20.15;9.43;;;2.10;99.90;;;;;;4862327;29;20085;-94
2021/03/09 03:48:34;;;;;;;16.30;8.68;;;2.00;99.90;;;;;;4865123;29;20060;-94
2021/03/09 03:51:01;;;;;;;;;;;2.00;99.90;;;;;;4870687;29;20037;-95
2021/03/09 03:53:41;;;;;;;16.02;7.50;;;2.00;99.90;;;;;;4869101;29;19916;-93
2021/03/09 03:56:39;;;;;;;14.50;7.80;;;2.00;99.90;;;;;;4873228;29;20045;-94
2021/03/09 03:59:18;;;;;;;14.48;7.57;;;2.00;99.90;;;;;;4877684;29;20029;-95
2021/03/09 04:01:46;;;;;;;18.23;8.52;;;1.90;99.90;;;;;;4867496;29;20037;-93
2021/03/09 04:04:13;;;;;;;15.25;8.18;;;1.90;99.90;;;;;;4865007;29;20025;-93
2021/03/09 04:06:44;;;;;;;19.13;8.80;;;1.90;99.90;;;;;;4878612;29;20063;-93
2021/03/09 04:09:12;;;;;;;18.50;7.82;;;1.80;99.90;;;;;;4873882;29;20125;-95
2021/03/09 04:11:39;;;;;;;16.38;7.95;;;1.80;99.90;;;;;;4867578;29;20131;-95
2021/03/09 04:14:07;;;;;;;15.80;8.82;;;1.70;99.90;;;;;;4865635;29;20033;-93
2021/03/09 04:16:34;;;;;;;14.90;8.25;;;1.70;99.90;;;;;;4865254;29;20037;-94
2021/03/09 04:19:02;;;;;;;18.52;9.27;;;1.70;99.90;;;;;;4865167;29;20026;-95
2021/03/09 04:21:29;;;;;;;19.10;8.65;;;1.80;99.90;;;;;;4864691;29;20060;-95
2021/03/09 04:23:55;;;;;;;19.02;8.77;;;1.80;99.90;;;;;;4865556;29;20086;-93
2021/03/09 04:26:23;;;;;;;17.95;9.07;;;1.70;99.90;;;;;;4867831;29;20049;-95
2021/03/09 04:28:49;;;;;;;19.27;9.05;;;1.70;99.90;;;;;;4867122;29;20048;-95
2021/03/09 04:31:17;;;;;;;16.83;8.85;;;1.70;99.90;;;;;;4866199;29;20093;-95
2021/03/09 04:33:43;;;;;;;16.15;8.05;;;1.70;99.90;;;;;;4866411;29;20036;-94
2021/03/09 04:36:10;;;;;;;13.73;8.18;;;1.60;99.90;;;;;;4863161;29;20045;-93
2021/03/09 04:38:36;;;;;;;16.27;8.75;;;1.60;99.90;;;;;;4864201;29;20029;-95
2021/03/09 04:41:02;;;;;;;15.63;8.23;;;1.60;99.90;;;;;;4863040;29;20037;-95
2021/03/09 04:43:28;;;;;;;20.85;8.90;;;1.60;99.90;;;;;;4864849;29;20081;-94
2021/03/09 04:45:58;;;;;;;13.70;7.78;;;1.60;99.90;;;;;;4873411;29;20033;-94
2021/03/09 04:48:28;;;;;;;14.40;7.75;;;1.60;99.90;;;;;;4858293;29;20033;-94
2021/03/09 04:51:06;;;;;;;16.73;8.10;;;1.50;99.90;;;;;;4866855;29;20126;-95
2021/03/09 04:53:33;;;;;;;14.15;7.82;;;1.50;99.90;;;;;;4869076;29;20077;-94
2021/03/09 04:56:00;;;;;;;15.20;7.35;;;1.40;99.90;;;;;;4870270;29;20041;-94
2021/03/09 04:58:26;;;;;;;19.98;8.10;;;1.40;99.90;;;;;;4876514;29;20036;-90
2021/03/09 05:00:53;;;;;;;17.75;8.48;;;1.30;99.90;;;;;;4882552;29;20080;-93
2021/03/09 05:03:20;;;;;;;16.73;8.75;;;1.30;99.90;;;;;;4882457;29;20025;-93
2021/03/09 05:05:46;;;;;;;14.55;7.68;;;1.30;99.90;;;;;;4880391;29;20034;-92
2021/03/09 05:08:12;;;;;;;11.70;6.18;;;1.30;99.90;;;;;;4877902;29;20068;-94
2021/03/09 05:10:37;;;;;;;15.52;7.57;;;1.20;99.90;;;;;;4876750;29;20108;-94
2021/03/09 05:13:04;;;;;;;16.15;7.85;;;1.20;99.90;;;;;;4877104;29;20433;-91
2021/03/09 05:15:30;;;;;;;15.70;6.95;;;1.20;99.90;;;;;;4873206;29;20049;-94
2021/03/09 05:17:56;;;;;;;15.52;6.57;;;1.20;99.90;;;;;;4872335;29;20388;-92
2021/03/09 05:20:22;;;;;;;13.02;6.78;;;1.20;99.90;;;;;;4872204;29;20061;-93
2021/03/09 05:22:47;;;;;;;16.27;7.00;;;1.20;99.90;;;;;;4868374;29;20111;-94
2021/03/09 05:25:15;;;;;;;17.10;7.85;;;1.10;99.90;;;;;;4868626;29;20040;-95
2021/03/09 05:27:42;;;;;;;12.27;7.20;;;1.10;99.90;;;;;;4866543;29;20060;-93
2021/03/09 05:30:10;;;;;;;16.17;7.35;;;1.10;99.90;;;;;;4864126;29;20021;-94
2021/03/09 05:32:36;;;;;;;12.15;6.65;;;1.10;99.90;;;;;;4867070;29;20022;-96
2021/03/09 05:35:03;;;;;;;15.38;8.25;;;1.10;99.90;;;;;;4866772;29;20040;-94
2021/03/09 05:37:29;;;;;;;14.60;7.50;;;1.10;99.90;;;;;;4865633;29;20038;-95
2021/03/09 05:39:55;;;;;;;12.20;6.55;;;1.10;99.90;;;;;;4863573;29;20548;-94
2021/03/09 05:42:21;;;;;;;15.82;8.32;;;1.10;99.90;;;;;;4862942;29;20050;-93
2021/03/09 05:44:47;;;;;;;15.65;8.32;;;1.00;99.90;;;;;;4864485;29;20034;-93
2021/03/09 05:47:13;;;;;;;10.85;6.93;;;0.90;99.90;;;;;;4865948;29;20037;-92
2021/03/09 05:49:39;;;;;;;25.60;6.85;;;0.90;99.90;;;;;;4872983;29;20025;-92
2021/03/09 05:52:05;;;;;;;14.80;8.50;;;0.80;99.90;;;;;;4864770;29;20041;-94
2021/03/09 05:54:30;;;;;;;18.42;8.38;;;0.80;99.90;;;;;;4862521;29;20037;-94
2021/03/09 05:56:56;;;;;;;16.17;7.88;;;0.80;99.90;;;;;;4864043;29;20042;-93
2021/03/09 05:59:23;;;;;;;14.38;7.72;;;0.70;99.90;;;;;;4865275;29;20040;-94
2021/03/09 06:01:49;;;;;;;15.77;7.68;;;0.70;99.90;;;;;;4864376;29;20040;-94
2021/03/09 06:04:15;;;;;;;20.42;8.95;;;0.60;99.90;;;;;;4865059;29;20054;-94
2021/03/09 06:06:41;;;;;;;13.70;7.63;;;0.60;99.90;;;;;;4867996;29;20086;-94
2021/03/09 06:09:42;;;;;;;14.27;7.90;;;0.60;99.90;;;;;;4872103;29;20491;-94
2021/03/09 06:12:12;;;;;;;12.82;7.97;;;0.60;99.90;;;;;;4874129;29;20034;-93
2021/03/09 06:14:43;;;;;;;15.35;8.10;;;0.50;99.90;;;;;;4873683;29;20085;-92
2021/03/09 06:17:14;;;;;;;15.25;7.90;;;0.60;99.90;;;;;;4874322;29;20026;-94
2021/03/09 06:19:47;;;;;;;21.13;7.60;;;0.60;99.90;;;;;;4873458;29;20029;-95
2021/03/09 06:22:14;;;;;;;14.27;8.05;;;0.60;99.90;;;;;;4875766;29;20038;-94
2021/03/09 06:24:41;;;;;;;10.23;6.72;;;0.60;99.90;;;;;;4878407;29;20021;-94
2021/03/09 06:27:29;;;;;;;15.35;7.22;;;0.50;99.90;;;;;;4872873;29;20112;-92
2021/03/09 06:29:56;;;;;;;15.30;7.82;;;0.50;99.90;;;;;;4873454;29;20029;-93
2021/03/09 06:32:22;;;;;;;14.60;7.50;;;0.50;99.90;;;;;;4869897;29;20044;-94
2021/03/09 06:34:50;;;;;;;16.23;8.77;;;0.50;99.90;;;;;;4872985;29;20038;-94
2021/03/09 06:37:23;;;;;;;14.73;7.53;;;0.40;99.90;;;;;;4873955;29;20025;-93
2021/03/09 06:39:54;;;;;;;16.20;8.63;;;0.40;99.90;;;;;;4875570;29;20030;-92
2021/03/09 06:42:46;;;;;;;16.33;8.90;;;0.30;99.90;;;;;;4888954;29;20104;-94
2021/03/09 06:45:14;;;;;;;21.27;9.38;;;0.30;99.90;;;;;;4898574;29;20478;-94
2021/03/09 06:47:42;;;;;;;13.40;7.28;;;0.30;99.90;;;;;;4901012;29;20053;-95
2021/03/09 06:50:08;;;;;;;18.00;8.35;;;0.20;99.90;;;;;;4883343;29;20021;-93
2021/03/09 06:52:34;;;;;;;20.40;9.63;;;0.40;99.90;;;;;;4884180;29;20044;-93
2021/03/09 06:55:00;;;;;;;15.73;9.35;;;0.50;99.90;;;;;;4884004;29;20033;-94
2021/03/09 06:57:25;;;;;;;19.35;9.50;;;0.70;99.90;;;;;;4884161;29;20017;-93
2021/03/09 06:59:53;;;;;;;17.55;9.07;;;0.80;99.90;;;;;;4883107;29;20037;-94
2021/03/09 07:02:36;;;;;;;16.08;9.48;;;0.90;99.90;;;;;;4884964;29;20009;-92
2021/03/09 07:05:10;;;;;;;22.65;9.05;;;1.00;99.90;;;;;;4884679;29;20001;-93
2021/03/09 07:07:40;;;;;;;16.73;7.95;;;1.10;99.90;;;;;;4882854;29;20067;-93
2021/03/09 07:10:15;;;;;;;16.30;8.25;;;1.10;99.90;;;;;;4886679;29;20017;-90
2021/03/09 07:12:43;;;;;;;15.00;7.95;;;1.20;99.90;;;;;;4871592;29;20126;-94
2021/03/09 07:15:14;;;;;;;12.32;7.40;;;1.20;99.90;;;;;;4879812;29;20045;-92
2021/03/09 07:17:40;;;;;;;13.57;7.55;;;1.20;99.90;;;;;;4875018;29;20033;-93
2021/03/09 07:20:08;;;;;;;12.80;8.07;;;1.20;99.90;;;;;;4881613;29;20029;-95
2021/03/09 07:22:36;;;;;;;15.57;7.55;;;1.30;99.90;;;;;;4894023;29;20021;-93
2021/03/09 07:25:11;;;;;;;15.80;7.97;;;1.30;99.90;;;;;;4877791;29;20041;-94
2021/03/09 07:27:37;;;;;;;13.27;8.45;;;1.40;99.90;;;;;;4878847;29;20193;-94
2021/03/09 07:30:05;;;;;;;15.15;8.40;;;1.40;99.90;;;;;;4884286;29;20068;-91
2021/03/09 07:32:31;;;;;;;16.73;8.27;;;1.40;99.90;;;;;;4881783;29;20060;-91
2021/03/09 07:34:59;;;;;;;14.98;8.38;;;1.40;99.90;;;;;;4899682;29;20040;-92
2021/03/09 07:37:25;;;;;;;19.15;8.43;;;1.40;99.90;;;;;;4878500;29;20055;-92
2021/03/09 07:39:51;;;;;;;19.95;8.65;;;1.40;99.90;;;;;;4876550;29;20041;-94
2021/03/09 07:42:23;;;;;;;16.75;8.48;;;1.30;99.90;;;;;;4879403;29;20105;-92
2021/03/09 07:44:49;;;;;;;17.63;8.55;;;1.40;99.90;;;;;;4880929;29;20080;-92
2021/03/09 07:47:18;;;;;;;16.63;8.77;;;1.30;99.90;;;;;;4882100;29;20050;-92
2021/03/09 07:49:45;;;;;;;18.48;8.57;;;1.30;99.90;;;;;;4875769;29;20032;-92
2021/03/09 07:52:27;;;;;;;16.08;8.95;;;1.30;99.90;;;;;;4876364;29;20033;-91
2021/03/09 07:55:02;;;;;;;17.20;9.27;;;1.40;99.90;;;;;;4869814;29;20094;-94
2021/03/09 07:57:28;;;;;;;19.75;9.38;;;1.40;99.90;;;;;;4877089;29;20665;-93
2021/03/09 08:00:05;;;;;;;17.88;10.00;;;1.40;99.90;;;;;;4874970;29;20486;-92
2021/03/09 08:02:56;;;;;;;20.42;10.27;;;1.50;99.90;;;;;;4876177;29;20040;-93
2021/03/09 08:05:27;;;;;;;33.33;9.98;;;1.50;99.90;;;;;;4867659;29;20029;-93
2021/03/09 08:07:53;;;;;;;;;;;1.50;99.90;;;;;;4865922;29;20033;-93
2021/03/09 08:10:33;;;;;;;21.92;9.77;;;1.50;99.90;;;;;;4864705;29;19916;-92
2021/03/09 08:13:08;;;;;;;20.17;9.98;;;1.50;99.90;;;;;;4851648;29;20059;-92
2021/03/09 08:15:38;;;;;;;22.63;10.45;;;1.60;99.90;;;;;;4864704;29;20040;-93
2021/03/09 08:18:16;;;;;;;27.63;12.45;;;1.70;99.90;;;;;;4873519;29;20029;-91
2021/03/09 08:20:58;;;;;;;34.88;14.75;;;1.80;99.90;;;;;;4870776;29;20040;-92
2021/03/09 08:23:36;;;;;;;39.67;17.73;;;2.00;99.90;;;;;;4873785;29;20025;-93
2021/03/09 08:26:28;;;;;;;76.00;30.10;;;2.10;99.90;;;;;;4898516;29;20025;-92
2021/03/09 08:28:54;;;;;;;44.75;18.15;;;2.20;99.90;;;;;;4880960;29;20028;-91
2021/03/09 08:31:19;;;;;;;53.58;23.25;;;2.20;99.90;;;;;;4879413;29;20089;-92
2021/03/09 08:33:46;;;;;;;54.03;23.88;;;2.20;99.90;;;;;;4878208;29;20041;-95
2021/03/09 08:36:24;;;;;;;40.65;18.23;;;2.20;99.90;;;;;;4880819;29;20045;-94
2021/03/09 08:39:02;;;;;;;23.45;12.30;;;2.10;99.90;;;;;;4900827;29;20081;-94
2021/03/09 08:41:37;;;;;;;22.20;12.27;;;2.10;99.90;;;;;;4903214;29;20037;-87
2021/03/09 08:44:21;;;;;;;25.75;12.85;;;2.10;99.90;;;;;;4884333;29;20033;-89
2021/03/09 08:47:07;;;;;;;24.95;10.88;;;2.10;99.90;;;;;;4878812;29;20034;-92
2021/03/09 08:49:36;;;;;;;24.45;11.68;;;2.10;99.90;;;;;;4872066;29;20037;-94
2021/03/09 08:52:31;;;;;;;19.27;12.05;;;2.10;99.90;;;;;;4870551;29;20066;-92
2021/03/09 08:54:57;;;;;;;20.67;11.00;;;2.20;99.90;;;;;;4864127;29;20039;-93
2021/03/09 08:57:26;;;;;;;22.33;11.45;;;2.20;99.90;;;;;;4864173;29;20025;-94
2021/03/09 09:00:00;;;;;;;25.38;12.05;;;2.20;99.90;;;;;;4862717;29;20056;-94
2021/03/09 09:02:27;;;;;;;19.85;11.13;;;2.30;99.90;;;;;;4862662;29;20030;-94
2021/03/09 09:04:55;;;;;;;21.02;11.13;;;2.40;99.90;;;;;;4862638;29;20025;-94
2021/03/09 09:09:58;;;;;;;25.42;12.70;;;2.50;99.90;;;;;;4861427;29;20029;-93
2021/03/09 09:12:38;;;;;;;19.35;9.60;;;2.60;99.90;;;;;;4883678;29;20049;-95
2021/03/09 09:15:07;;;;;;;20.60;11.05;;;2.80;99.90;;;;;;4872550;29;20037;-94
2021/03/09 09:17:34;;;;;;;14.75;9.43;;;2.90;99.90;;;;;;4872491;29;20025;-94
2021/03/09 09:20:11;;;;;;;20.17;11.48;;;3.10;99.90;;;;;;4869219;29;20025;-94
2021/03/09 09:22:37;;;;;;;20.83;10.43;;;3.20;99.90;;;;;;4881338;29;20034;-94
2021/03/09 09:25:09;;;;;;;18.90;10.15;;;3.40;99.90;;;;;;4883698;29;20053;-93
2021/03/09 09:27:44;;;;;;;19.02;9.38;;;3.70;99.90;;;;;;4884266;29;20082;-94
2021/03/09 09:30:16;;;;;;;18.75;9.65;;;3.90;99.90;;;;;;4884127;29;20042;-93
2021/03/09 09:32:53;;;;;;;17.70;9.90;;;3.90;99.90;;;;;;4879008;29;20026;-94
2021/03/09 09:35:20;;;;;;;15.95;9.65;;;4.00;99.90;;;;;;4872363;29;20041;-92
2021/03/09 09:37:48;;;;;;;20.95;10.77;;;4.10;99.90;;;;;;4872408;29;20037;-92
2021/03/09 09:40:16;;;;;;;21.65;10.20;;;4.10;99.90;;;;;;4866839;29;20029;-93
2021/03/09 09:42:41;;;;;;;22.85;10.80;;;4.20;99.90;;;;;;4864741;29;20492;-94
2021/03/09 09:45:08;;;;;;;21.67;11.20;;;4.20;99.90;;;;;;4864047;29;20055;-94
2021/03/09 09:47:34;;;;;;;19.45;10.93;;;4.30;99.90;;;;;;4863005;29;20056;-94
2021/03/09 09:50:02;;;;;;;23.38;10.95;;;4.30;99.90;;;;;;4863577;29;20098;-95
2021/03/09 09:52:28;;;;;;;16.05;9.82;;;4.30;99.90;;;;;;4863665;29;20395;-94
2021/03/09 09:54:55;;;;;;;22.13;9.85;;;4.30;99.90;;;;;;4863396;29;20029;-94
2021/03/09 09:57:23;;;;;;;15.90;9.30;;;4.40;99.90;;;;;;4864679;29;20030;-94
2021/03/09 09:59:49;;;;;;;16.25;9.65;;;4.40;99.90;;;;;;4862883;29;20111;-94
2021/03/09 10:02:23;;;;;;;23.10;10.43;;;4.50;99.90;;;;;;4861614;29;20030;-94
2021/03/09 10:04:50;;;;;;;17.40;9.25;;;4.50;99.90;;;;;;4860518;29;20109;-94
2021/03/09 10:07:19;;;;;;;17.48;9.80;;;4.60;99.90;;;;;;4863739;29;20691;-93
2021/03/09 10:10:09;;;;;;;20.10;10.77;;;4.70;99.90;;;;;;4863770;29;20111;-94
2021/03/09 10:12:39;;;;;;;21.30;9.25;;;4.80;99.90;;;;;;4861098;29;20032;-95
2021/03/09 10:15:07;;;;;;;20.30;9.75;;;4.80;99.90;;;;;;4862624;29;20101;-94
2021/03/09 10:17:33;;;;;;;21.02;9.55;;;4.90;99.90;;;;;;4863020;29;20033;-95
2021/03/09 10:19:59;;;;;;;18.58;9.63;;;5.00;99.90;;;;;;4865083;29;20093;-94
2021/03/09 10:22:26;;;;;;;23.40;10.38;;;5.00;99.90;;;;;;4863822;29;20117;-95
2021/03/09 10:25:06;;;;;;;22.23;10.27;;;5.10;99.90;;;;;;4864051;29;20523;-96
2021/03/09 10:27:32;;;;;;;20.65;9.30;;;5.10;99.90;;;;;;4863296;29;20476;-95
2021/03/09 10:29:58;;;;;;;16.10;8.98;;;5.20;99.90;;;;;;4861457;29;20034;-95
2021/03/09 10:32:24;;;;;;;24.20;9.00;;;5.30;99.90;;;;;;4861463;29;20090;-94
2021/03/09 10:34:55;;;;;;;21.80;9.35;;;5.50;99.90;;;;;;4865290;29;20438;-94
2021/03/09 10:37:39;;;;;;;14.52;8.35;;;5.60;99.90;;;;;;4863415;29;20026;-95
2021/03/09 10:40:08;;;;;;;21.02;8.80;;;5.70;99.90;;;;;;4862960;29;20035;-94
2021/03/09 10:42:36;;;;;;;18.55;9.45;;;5.80;99.90;;;;;;4863570;29;20400;-94
2021/03/09 10:45:25;;;;;;;22.48;8.85;;;5.80;99.90;;;;;;4864580;29;20041;-94
2021/03/09 10:47:52;;;;;;;24.17;9.02;;;5.90;99.90;;;;;;4863159;29;20046;-94
2021/03/09 10:50:21;;;;;;;15.68;8.63;;;5.90;99.90;;;;;;4863554;29;20233;-94
2021/03/09 10:52:47;;;;;;;17.75;7.85;;;6.00;99.90;;;;;;4865216;29;20028;-95
2021/03/09 10:55:13;;;;;;;24.45;9.98;;;6.10;99.90;;;;;;4864592;29;20037;-95
2021/03/09 10:57:39;;;;;;;13.90;7.35;;;6.10;99.90;;;;;;4864763;29;20029;-93
2021/03/09 11:00:07;;;;;;;17.40;7.00;;;6.10;99.90;;;;;;4864830;29;20034;-94
2021/03/09 11:02:33;;;;;;;14.93;8.20;;;6.20;99.90;;;;;;4864975;29;20021;-89
2021/03/09 11:04:59;;;;;;;18.25;8.75;;;6.30;99.90;;;;;;4862667;29;20073;-90
2021/03/09 11:07:24;;;;;;;15.30;9.60;;;6.30;99.90;;;;;;4862781;29;20105;-90
2021/03/09 11:09:50;;;;;;;20.65;9.48;;;6.40;99.90;;;;;;4849445;29;20063;-90
2021/03/09 11:12:17;;;;;;;12.75;7.45;;;6.50;99.90;;;;;;4852633;29;20029;-91
2021/03/09 11:14:42;;;;;;;13.60;6.93;;;6.70;99.90;;;;;;4861862;29;20112;-90
2021/03/09 11:17:08;;;;;;;16.80;6.75;;;6.80;99.90;;;;;;4861909;29;20068;-91
2021/03/09 11:19:35;;;;;;;9.82;6.05;;;7.00;99.90;;;;;;4863209;29;20025;-91
2021/03/09 11:22:01;;;;;;;16.92;5.78;;;7.10;99.90;;;;;;4863722;29;20037;-90
2021/03/09 11:24:27;;;;;;;10.52;7.18;;;7.10;99.90;;;;;;4863807;29;20037;-90
2021/03/09 11:26:58;;;;;;;19.85;12.15;;;7.20;99.90;;;;;;4864462;29;20037;-91
2021/03/09 11:29:25;;;;;;;18.02;9.80;;;7.30;99.90;;;;;;4868294;29;20040;-90
2021/03/09 11:31:50;;;;;;;18.33;8.77;;;7.40;99.90;;;;;;4868911;29;20319;-91
2021/03/09 11:34:16;;;;;;;15.05;9.68;;;7.50;99.90;;;;;;4870614;29;20093;-89
2021/03/09 11:36:42;;;;;;;14.95;9.80;;;7.70;99.90;;;;;;4871308;29;20052;-90
2021/03/09 11:39:08;;;;;;;17.38;10.30;;;7.90;99.90;;;;;;4870338;29;20026;-90
2021/03/09 11:41:33;;;;;;;13.30;8.52;;;8.10;99.90;;;;;;4881123;29;20014;-91
2021/03/09 11:43:59;;;;;;;17.50;10.07;;;8.20;99.90;;;;;;4903213;29;20040;-91
2021/03/09 11:46:25;;;;;;;9.55;5.68;;;8.20;99.90;;;;;;4901848;29;20025;-90
2021/03/09 11:48:50;;;;;;;9.02;5.55;;;8.30;99.90;;;;;;4884020;29;20048;-91
2021/03/09 11:51:16;;;;;;;10.27;5.97;;;8.20;99.90;;;;;;4898120;29;20530;-91
2021/03/09 11:53:42;;;;;;;10.70;6.22;;;8.20;99.90;;;;;;4904673;29;20032;-89
2021/03/09 11:56:08;;;;;;;14.32;7.85;;;8.20;99.90;;;;;;4886759;29;20483;-89
2021/03/09 11:58:34;;;;;;;12.07;7.43;;;8.20;99.90;;;;;;4877489;29;20068;-90
2021/03/09 12:00:59;;;;;;;8.85;4.32;;;8.20;99.90;;;;;;4892094;29;20032;-90
2021/03/09 12:03:25;;;;;;;8.02;5.28;;;8.20;99.90;;;;;;4875996;29;20053;-90
2021/03/09 12:05:51;;;;;;;8.07;4.65;;;8.10;99.90;;;;;;4902858;29;20039;-90
2021/03/09 12:08:17;;;;;;;7.80;4.78;;;8.10;99.90;;;;;;4923066;29;20052;-90
2021/03/09 12:10:42;;;;;;;6.20;4.30;;;8.10;99.90;;;;;;4920347;29;20044;-89
2021/03/09 12:13:08;;;;;;;7.55;4.50;;;8.20;99.90;;;;;;4901029;29;20049;-89
2021/03/09 12:15:34;;;;;;;10.43;5.68;;;8.40;99.90;;;;;;4894541;29;20045;-89
2021/03/09 12:18:00;;;;;;;9.65;4.03;;;8.70;99.90;;;;;;4887303;29;20068;-89
2021/03/09 12:20:26;;;;;;;7.15;4.10;;;9.30;99.90;;;;;;4867489;29;20415;-90
2021/03/09 12:22:52;;;;;;;6.22;3.63;;;9.90;99.90;;;;;;4869610;29;20056;-90
2021/03/09 12:25:18;;;;;;;5.50;3.20;;;10.70;99.90;;;;;;4869732;29;20021;-90
2021/03/09 12:27:44;;;;;;;6.13;2.70;;;11.30;99.90;;;;;;4880577;29;20068;-90
2021/03/09 12:30:10;;;;;;;6.03;2.67;;;11.80;99.90;;;;;;4871572;29;20480;-89
2021/03/09 12:32:37;;;;;;;6.00;2.70;;;12.40;99.90;;;;;;4873859;29;20105;-90
2021/03/09 12:35:04;;;;;;;5.13;2.22;;;12.80;97.80;;;;;;4871224;29;20041;-90
2021/03/09 12:37:30;;;;;;;3.20;2.40;;;13.10;95.40;;;;;;4866241;29;20120;-90
2021/03/09 12:39:55;;;;;;;5.20;2.83;;;13.40;93.10;;;;;;4881556;29;20064;-89
2021/03/09 12:42:21;;;;;;;5.35;2.55;;;13.60;91.80;;;;;;4881702;29;20052;-90
2021/03/09 12:44:47;;;;;;;3.83;2.30;;;13.80;90.20;;;;;;4862672;29;20033;-90
2021/03/09 12:47:12;;;;;;;3.50;2.50;;;14.00;89.10;;;;;;4863408;29;20141;-90
2021/03/09 12:49:38;;;;;;;3.10;2.38;;;14.10;86.60;;;;;;4862925;29;20025;-90
2021/03/09 12:52:04;;;;;;;10.55;3.22;;;14.00;84.50;;;;;;4879844;29;20027;-89
2021/03/09 12:54:30;;;;;;;4.90;2.30;;;14.00;84.70;;;;;;4862736;29;20029;-90
2021/03/09 12:56:56;;;;;;;8.70;3.58;;;14.10;84.40;;;;;;4863158;29;20048;-89
2021/03/09 12:59:21;;;;;;;4.00;2.83;;;14.10;83.00;;;;;;4879427;29;20157;-89